createdAt,value
2023-01-22T00:00:45.366Z,16.48
2023-01-22T00:03:13.311Z,15.27
2023-01-22T00:05:40.910Z,16.08
2023-01-22T00:08:09.291Z,15.43
2023-01-22T00:10:37.333Z,15.35
2023-01-22T00:13:06.350Z,15.07
2023-01-22T00:15:33.869Z,14.95
2023-01-22T00:18:02.257Z,15.32
2023-01-22T00:20:30.408Z,16.60
2023-01-22T00:22:57.966Z,15.23
2023-01-22T00:25:27.278Z,17.13
2023-01-22T00:27:55.374Z,14.15
2023-01-22T00:30:25.280Z,14.30
2023-01-22T00:32:53.731Z,13.90
2023-01-22T00:35:21.315Z,13.57
2023-01-22T00:37:49.815Z,15.98
2023-01-22T00:40:18.389Z,15.65
2023-01-22T00:42:46.121Z,14.40
2023-01-22T00:45:15.024Z,15.43
2023-01-22T00:47:45.318Z,15.48
2023-01-22T00:50:17.050Z,16.05
2023-01-22T00:52:45.715Z,16.92
2023-01-22T00:55:13.638Z,16.17
2023-01-22T00:57:41.783Z,18.23
2023-01-22T01:00:11.248Z,15.75
2023-01-22T01:03:00.311Z,15.77
2023-01-22T01:05:29.497Z,13.25
2023-01-22T01:07:57.009Z,16.25
2023-01-22T01:10:26.317Z,15.93
2023-01-22T01:12:56.297Z,15.55
2023-01-22T01:15:24.201Z,15.38
2023-01-22T01:17:52.138Z,14.30
2023-01-22T01:20:20.487Z,13.90
2023-01-22T01:22:50.330Z,16.00
2023-01-22T01:25:18.755Z,15.45
2023-01-22T01:27:46.286Z,14.93
2023-01-22T01:30:13.986Z,14.27
2023-01-22T01:32:41.609Z,14.23
2023-01-22T01:35:10.129Z,15.18
2023-01-22T01:37:40.693Z,14.00
2023-01-22T01:40:11.343Z,15.57
2023-01-22T01:42:43.136Z,15.55
2023-01-22T01:45:28.794Z,15.57
2023-01-22T01:48:05.437Z,15.52
2023-01-22T01:50:34.604Z,14.48
2023-01-22T01:53:03.197Z,14.43
2023-01-22T01:55:35.476Z,15.23
2023-01-22T01:58:10.368Z,14.65
2023-01-22T02:00:42.296Z,14.23
2023-01-22T02:03:10.799Z,12.88
2023-01-22T02:05:39.892Z,13.85
2023-01-22T02:08:12.276Z,14.93
2023-01-22T02:10:44.346Z,13.50
2023-01-22T02:15:43.443Z,15.82
2023-01-22T02:18:11.964Z,14.93
2023-01-22T02:20:41.604Z,14.50
2023-01-22T02:23:10.305Z,14.85
2023-01-22T02:25:38.660Z,15.02
2023-01-22T02:28:10.357Z,13.93
2023-01-22T02:30:38.088Z,17.95
2023-01-22T02:33:05.995Z,15.40
2023-01-22T02:35:34.298Z,18.20
2023-01-22T02:38:05.365Z,14.57
2023-01-22T02:40:50.265Z,14.43
2023-01-22T02:43:20.441Z,15.73
2023-01-22T02:45:48.223Z,16.17
2023-01-22T02:48:16.816Z,14.55
2023-01-22T02:50:45.223Z,15.80
2023-01-22T02:53:18.178Z,15.02
2023-01-22T02:55:47.097Z,15.23
2023-01-22T02:58:17.132Z,17.33
2023-01-22T03:00:45.778Z,15.50
2023-01-22T03:03:18.314Z,15.02
2023-01-22T03:05:49.374Z,14.45
2023-01-22T03:08:21.289Z,16.50
2023-01-22T03:10:48.859Z,14.50
2023-01-22T03:13:33.960Z,15.88
2023-01-22T03:16:29.068Z,15.70
2023-01-22T03:19:17.018Z,15.63
2023-01-22T03:21:44.717Z,17.45
2023-01-22T03:24:14.331Z,16.02
2023-01-22T03:26:42.004Z,14.43
2023-01-22T03:29:10.297Z,18.50
2023-01-22T03:31:38.716Z,16.17
2023-01-22T03:34:06.389Z,16.52
2023-01-22T03:36:34.147Z,16.23
2023-01-22T03:39:05.429Z,16.60
2023-01-22T03:41:35.302Z,16.58
2023-01-22T03:44:03.529Z,18.23
2023-01-22T03:49:06.283Z,18.27
2023-01-22T03:51:35.343Z,15.27
2023-01-22T03:54:05.129Z,17.08
2023-01-22T03:56:36.017Z,17.80
2023-01-22T04:02:03.343Z,16.10
2023-01-22T04:04:35.290Z,18.10
2023-01-22T04:07:03.350Z,13.73
2023-01-22T04:09:30.931Z,15.50
2023-01-22T04:12:00.937Z,15.80
2023-01-22T04:14:29.362Z,15.32
2023-01-22T04:17:00.809Z,16.15
2023-01-22T04:20:04.963Z,15.40
2023-01-22T04:22:52.454Z,16.50
2023-01-22T04:25:23.266Z,17.27
2023-01-22T04:27:53.215Z,17.58
2023-01-22T04:30:21.275Z,15.63
2023-01-22T04:32:55.004Z,13.98
2023-01-22T04:35:43.315Z,15.73
2023-01-22T04:38:13.867Z,16.02
2023-01-22T04:40:42.544Z,19.00
2023-01-22T04:43:12.027Z,17.98
2023-01-22T04:45:40.285Z,16.17
2023-01-22T04:48:10.938Z,15.38
2023-01-22T04:50:40.462Z,14.98
2023-01-22T04:53:11.911Z,15.95
2023-01-22T04:55:42.306Z,14.77
2023-01-22T04:58:37.310Z,16.77
2023-01-22T05:01:06.542Z,13.82
2023-01-22T05:03:34.306Z,13.57
2023-01-22T05:06:08.310Z,13.27
2023-01-22T05:08:40.340Z,11.95
2023-01-22T05:11:09.554Z,14.57
2023-01-22T05:13:45.617Z,14.15
2023-01-22T05:16:13.930Z,14.25
2023-01-22T05:18:42.404Z,13.38
2023-01-22T05:21:10.695Z,14.35
2023-01-22T05:23:39.444Z,13.65
2023-01-22T05:26:13.299Z,14.40
2023-01-22T05:28:53.677Z,13.75
2023-01-22T05:31:31.307Z,13.77
2023-01-22T05:34:15.594Z,13.02
2023-01-22T05:36:43.762Z,13.73
2023-01-22T05:39:18.373Z,13.52
2023-01-22T05:41:47.283Z,13.43
2023-01-22T05:44:17.040Z,12.98
2023-01-22T05:46:50.594Z,13.65
2023-01-22T05:50:08.122Z,13.63
2023-01-22T05:52:37.412Z,11.20
2023-01-22T05:55:05.796Z,13.00
2023-01-22T05:57:45.364Z,13.35
2023-01-22T06:00:17.770Z,13.02
2023-01-22T06:02:50.206Z,13.65
2023-01-22T06:05:18.318Z,12.32
2023-01-22T06:07:51.347Z,12.57
2023-01-22T06:10:29.724Z,11.57
2023-01-22T06:12:59.339Z,12.65
2023-01-22T06:15:28.234Z,12.23
2023-01-22T06:18:05.286Z,12.55
2023-01-22T06:20:33.453Z,14.25
2023-01-22T06:23:01.295Z,13.52
2023-01-22T06:25:31.883Z,13.88
2023-01-22T06:28:09.726Z,14.38
2023-01-22T06:30:40.135Z,13.85
2023-01-22T06:33:08.282Z,14.57
2023-01-22T06:35:35.879Z,12.77
2023-01-22T06:38:04.353Z,13.77
2023-01-22T06:40:35.757Z,13.30
2023-01-22T06:43:05.075Z,14.85
2023-01-22T06:45:34.274Z,13.82
2023-01-22T06:48:08.883Z,13.88
2023-01-22T06:50:38.287Z,13.05
2023-01-22T06:53:06.332Z,12.43
2023-01-22T06:55:35.845Z,15.27
2023-01-22T06:58:03.720Z,15.48
2023-01-22T07:00:32.104Z,13.25
2023-01-22T07:03:02.052Z,14.00
2023-01-22T07:05:31.264Z,14.73
2023-01-22T07:07:58.862Z,13.77
2023-01-22T07:10:26.747Z,13.73
2023-01-22T07:12:55.819Z,13.88
2023-01-22T07:15:23.699Z,13.20
2023-01-22T07:17:53.359Z,13.43
2023-01-22T07:20:22.192Z,11.73
2023-01-22T07:22:51.335Z,12.60
2023-01-22T07:25:20.346Z,12.50
2023-01-22T07:27:47.967Z,13.57
2023-01-22T07:30:16.272Z,13.60
2023-01-22T07:32:44.016Z,11.93
2023-01-22T07:35:36.023Z,13.38
2023-01-22T07:40:32.987Z,13.90
2023-01-22T07:43:00.627Z,13.40
2023-01-22T07:45:29.361Z,13.52
2023-01-22T07:47:58.699Z,14.80
2023-01-22T07:50:30.629Z,14.38
2023-01-22T07:53:00.478Z,15.48
2023-01-22T07:55:31.224Z,13.60
2023-01-22T07:58:00.355Z,15.15
2023-01-22T08:00:28.072Z,13.32
2023-01-22T08:02:59.829Z,14.18
2023-01-22T08:05:28.894Z,14.23
2023-01-22T08:07:57.267Z,15.40
2023-01-22T08:10:24.802Z,16.42
2023-01-22T08:12:53.756Z,14.73
2023-01-22T08:15:21.677Z,15.50
2023-01-22T08:17:50.673Z,15.07
2023-01-22T08:20:19.287Z,14.68
2023-01-22T08:22:48.041Z,17.50
2023-01-22T08:25:16.110Z,14.73
2023-01-22T08:27:43.724Z,16.63
2023-01-22T08:30:14.288Z,15.75
2023-01-22T08:32:45.311Z,15.07
2023-01-22T08:35:15.314Z,16.13
2023-01-22T08:37:43.953Z,16.70
2023-01-22T08:40:12.419Z,15.65
2023-01-22T08:42:40.348Z,15.63
2023-01-22T08:48:29.335Z,15.00
2023-01-22T08:51:01.833Z,15.52
2023-01-22T08:53:34.269Z,13.80
2023-01-22T08:56:01.875Z,13.43
2023-01-22T08:58:32.262Z,16.60
2023-01-22T09:01:01.331Z,15.57
2023-01-22T09:03:31.358Z,16.35
2023-01-22T09:05:59.811Z,16.88
2023-01-22T09:08:28.292Z,15.30
2023-01-22T09:10:56.259Z,15.13
2023-01-22T09:13:24.355Z,16.45
2023-01-22T09:15:52.271Z,15.23
2023-01-22T09:18:19.797Z,17.20
2023-01-22T09:20:49.030Z,16.02
2023-01-22T09:23:17.101Z,17.15
2023-01-22T09:25:47.291Z,14.93
2023-01-22T09:28:15.003Z,16.65
2023-01-22T09:30:44.130Z,16.45
2023-01-22T09:33:13.315Z,15.70
2023-01-22T09:35:40.867Z,17.15
2023-01-22T09:38:14.397Z,16.15
2023-01-22T09:40:46.646Z,17.40
2023-01-22T09:43:26.061Z,18.27
2023-01-22T09:45:59.376Z,16.08
2023-01-22T09:48:34.633Z,21.33
2023-01-22T09:51:02.455Z,19.75
2023-01-22T09:53:31.859Z,17.38
2023-01-22T09:56:00.733Z,16.67
2023-01-22T09:58:28.380Z,16.65
2023-01-22T10:01:00.435Z,16.50
2023-01-22T10:03:33.264Z,18.73
2023-01-22T10:06:05.415Z,16.65
2023-01-22T10:08:47.209Z,16.60
2023-01-22T10:11:14.757Z,16.38
2023-01-22T10:13:42.438Z,17.52
2023-01-22T10:16:14.291Z,16.48
2023-01-22T10:21:19.232Z,17.48
2023-01-22T10:23:50.322Z,17.58
2023-01-22T10:26:24.913Z,15.18
2023-01-22T10:28:56.324Z,14.90
2023-01-22T10:31:27.387Z,17.45
2023-01-22T10:34:00.125Z,17.17
2023-01-22T10:39:14.345Z,17.98
2023-01-22T10:41:42.380Z,19.33
2023-01-22T10:44:23.783Z,18.77
2023-01-22T10:46:54.328Z,17.88
2023-01-22T10:49:26.270Z,15.85
2023-01-22T10:51:57.341Z,17.00
2023-01-22T10:54:31.277Z,18.33
2023-01-22T10:57:08.194Z,18.95
2023-01-22T10:59:39.967Z,18.63
2023-01-22T11:02:16.667Z,19.15
2023-01-22T11:04:44.399Z,26.13
2023-01-22T11:07:17.079Z,49.75
2023-01-22T11:09:50.299Z,38.72
2023-01-22T11:12:47.030Z,41.03
2023-01-22T11:20:42.991Z,27.45
2023-01-22T11:23:19.237Z,23.15
2023-01-22T11:25:57.913Z,19.20
2023-01-22T11:28:41.433Z,19.17
2023-01-22T11:31:24.582Z,27.98
2023-01-22T11:34:10.338Z,24.92
2023-01-22T11:36:46.858Z,20.58
2023-01-22T11:39:35.096Z,20.80
2023-01-22T11:42:14.972Z,18.08
2023-01-22T11:45:00.188Z,23.30
2023-01-22T11:47:48.223Z,18.58
2023-01-22T11:50:26.518Z,19.00
2023-01-22T11:53:06.477Z,19.50
2023-01-22T11:55:52.027Z,20.63
2023-01-22T11:58:29.923Z,18.85
2023-01-22T12:01:15.774Z,20.55
2023-01-22T12:04:03.257Z,20.42
2023-01-22T12:06:55.629Z,19.88
2023-01-22T12:09:27.239Z,19.45
2023-01-22T12:12:08.880Z,22.95
2023-01-22T12:14:51.434Z,25.55
2023-01-22T12:17:33.071Z,30.30
2023-01-22T12:20:45.014Z,34.10
2023-01-22T12:23:16.483Z,59.33
2023-01-22T12:25:53.271Z,31.88
2023-01-22T12:28:27.818Z,53.10
2023-01-22T12:31:01.252Z,32.60
2023-01-22T12:33:31.651Z,34.13
2023-01-22T12:36:03.316Z,24.73
2023-01-22T12:38:42.630Z,21.58
2023-01-22T12:41:24.948Z,32.03
2023-01-22T12:43:57.261Z,26.55
2023-01-22T12:49:06.353Z,22.63
2023-01-22T12:51:40.484Z,30.17
2023-01-22T12:54:11.332Z,22.48
2023-01-22T12:56:39.722Z,26.70
2023-01-22T12:59:07.368Z,22.77
2023-01-22T13:01:37.309Z,22.38
2023-01-22T13:04:08.418Z,21.25
2023-01-22T13:06:38.177Z,26.85
2023-01-22T13:09:08.224Z,64.68
2023-01-22T13:11:38.925Z,25.67
2023-01-22T13:14:17.548Z,25.63
2023-01-22T13:16:54.548Z,24.25
2023-01-22T13:19:24.298Z,22.67
2023-01-22T13:21:55.256Z,22.98
2023-01-22T13:24:23.325Z,22.20
2023-01-22T13:26:56.561Z,19.55
2023-01-22T13:29:28.489Z,22.30
2023-01-22T13:34:28.273Z,19.45
2023-01-22T13:36:57.340Z,20.35
2023-01-22T13:39:27.729Z,21.95
2023-01-22T13:44:27.389Z,22.05
2023-01-22T13:46:55.424Z,32.78
2023-01-22T13:49:27.564Z,45.05
2023-01-22T13:52:00.339Z,37.22
2023-01-22T13:54:31.702Z,22.98
2023-01-22T13:57:00.945Z,29.02
2023-01-22T13:59:34.975Z,25.15
2023-01-22T14:02:13.447Z,24.33
2023-01-22T14:04:42.486Z,23.73
2023-01-22T14:07:17.631Z,25.83
2023-01-22T14:09:46.673Z,23.05
2023-01-22T14:12:17.351Z,39.15
2023-01-22T14:14:45.599Z,31.30
2023-01-22T14:17:26.929Z,31.27
2023-01-22T14:19:56.496Z,39.35
2023-01-22T14:22:24.422Z,27.33
2023-01-22T14:24:52.847Z,22.17
2023-01-22T14:27:20.930Z,24.42
2023-01-22T14:29:48.580Z,22.27
2023-01-22T14:32:16.449Z,23.88
2023-01-22T14:34:43.998Z,24.55
2023-01-22T14:37:17.031Z,19.58
2023-01-22T14:39:44.616Z,35.50
2023-01-22T14:42:12.181Z,31.52
2023-01-22T14:44:39.766Z,28.73
2023-01-22T14:47:07.396Z,23.90
2023-01-22T14:49:36.246Z,25.30
2023-01-22T14:52:04.293Z,31.23
2023-01-22T14:54:34.066Z,18.10
2023-01-22T14:57:04.110Z,18.40
2023-01-22T14:59:31.840Z,21.70
2023-01-22T15:02:00.782Z,28.17
2023-01-22T15:04:28.413Z,29.10
2023-01-22T15:06:56.225Z,27.70
2023-01-22T15:09:48.122Z,23.10
2023-01-22T15:12:17.104Z,31.92
2023-01-22T15:14:44.685Z,30.27
2023-01-22T15:17:12.225Z,26.60
2023-01-22T15:19:41.644Z,24.00
2023-01-22T15:22:09.453Z,30.77
2023-01-22T15:24:39.268Z,24.58
2023-01-22T15:27:07.531Z,25.90
2023-01-22T15:29:36.446Z,36.10
2023-01-22T15:32:05.293Z,27.60
2023-01-22T15:34:34.793Z,24.13
2023-01-22T15:37:03.507Z,21.30
2023-01-22T15:39:31.106Z,21.27
2023-01-22T15:41:58.841Z,17.95
2023-01-22T15:44:30.344Z,18.92
2023-01-22T15:47:00.973Z,21.88
2023-01-22T15:49:32.726Z,24.13
2023-01-22T15:52:00.321Z,22.15
2023-01-22T15:54:28.367Z,19.77
2023-01-22T15:56:56.287Z,29.05
2023-01-22T15:59:24.824Z,27.45
2023-01-22T16:01:54.262Z,26.85
2023-01-22T16:04:24.154Z,29.27
2023-01-22T16:06:52.558Z,28.00
2023-01-22T16:09:20.373Z,23.58
2023-01-22T16:11:48.607Z,21.38
2023-01-22T16:14:16.241Z,19.75
2023-01-22T16:16:43.884Z,24.92
2023-01-22T16:19:13.193Z,41.17
2023-01-22T16:21:44.954Z,30.05
2023-01-22T16:24:12.622Z,25.50
2023-01-22T16:26:40.293Z,23.92
2023-01-22T16:29:09.255Z,22.17
2023-01-22T16:31:37.555Z,26.25
2023-01-22T16:34:12.456Z,22.55
2023-01-22T16:36:43.045Z,23.63
2023-01-22T16:39:18.395Z,24.98
2023-01-22T16:41:48.272Z,22.45
2023-01-22T16:44:18.277Z,22.42
2023-01-22T16:46:47.706Z,21.27
2023-01-22T16:49:18.260Z,20.52
2023-01-22T16:51:49.082Z,19.35
2023-01-22T16:54:21.281Z,20.23
2023-01-22T16:56:51.342Z,24.40
2023-01-22T16:59:19.284Z,38.03
2023-01-22T17:01:47.358Z,40.33
2023-01-22T17:04:15.259Z,47.03
2023-01-22T17:06:47.999Z,31.45
2023-01-22T17:09:17.530Z,29.50
2023-01-22T17:11:47.033Z,26.33
2023-01-22T17:14:19.021Z,55.63
2023-01-22T17:16:46.837Z,51.67
2023-01-22T17:19:14.956Z,41.65
2023-01-22T17:21:42.986Z,35.92
2023-01-22T17:24:13.226Z,29.10
2023-01-22T17:26:42.889Z,27.75
2023-01-22T17:29:11.144Z,26.40
2023-01-22T17:31:40.385Z,23.63
2023-01-22T17:34:10.957Z,22.55
2023-01-22T17:36:39.755Z,24.52
2023-01-22T17:39:07.985Z,22.67
2023-01-22T17:41:37.350Z,21.85
2023-01-22T17:44:05.149Z,21.60
2023-01-22T17:46:34.991Z,24.30
2023-01-22T17:49:06.311Z,20.88
2023-01-22T17:51:35.680Z,23.33
2023-01-22T17:54:09.279Z,20.63
2023-01-22T17:56:42.874Z,21.90
2023-01-22T17:59:13.294Z,22.75
2023-01-22T18:01:42.307Z,24.08
2023-01-22T18:04:11.711Z,23.42
2023-01-22T18:06:40.647Z,22.52
2023-01-22T18:09:09.487Z,24.30
2023-01-22T18:11:39.440Z,25.45
2023-01-22T18:14:09.597Z,33.50
2023-01-22T18:16:40.743Z,32.42
2023-01-22T18:19:10.426Z,29.02
2023-01-22T18:21:39.535Z,34.40
2023-01-22T18:24:09.423Z,31.38
2023-01-22T18:26:39.055Z,30.48
2023-01-22T18:29:07.267Z,27.40
2023-01-22T18:31:35.588Z,26.75
2023-01-22T18:34:05.899Z,27.08
2023-01-22T18:36:36.174Z,23.23
2023-01-22T18:39:06.619Z,22.23
2023-01-22T18:41:34.475Z,25.95
2023-01-22T18:44:03.826Z,24.10
2023-01-22T18:46:34.033Z,26.48
2023-01-22T18:49:06.391Z,27.17
2023-01-22T18:51:34.861Z,25.55
2023-01-22T18:54:04.747Z,28.25
2023-01-22T18:56:32.789Z,28.48
2023-01-22T18:59:01.177Z,27.27
2023-01-22T19:01:32.352Z,26.35
2023-01-22T19:04:01.874Z,26.05
2023-01-22T19:06:31.663Z,27.95
2023-01-22T19:09:03.695Z,25.63
2023-01-22T19:11:32.889Z,24.88
2023-01-22T19:14:02.916Z,24.05
2023-01-22T19:16:34.375Z,24.25
2023-01-22T19:19:11.151Z,28.42
2023-01-22T19:21:40.379Z,27.83
2023-01-22T19:24:11.467Z,28.17
2023-01-22T19:26:39.581Z,31.40
2023-01-22T19:29:09.647Z,35.72
2023-01-22T19:31:42.057Z,31.70
2023-01-22T19:34:15.166Z,31.45
2023-01-22T19:36:42.780Z,32.30
2023-01-22T19:39:13.247Z,30.52
2023-01-22T19:41:41.604Z,26.02
2023-01-22T19:44:11.731Z,29.50
2023-01-22T19:46:41.382Z,31.35
2023-01-22T19:49:13.266Z,29.23
2023-01-22T19:51:41.361Z,27.20
2023-01-22T19:54:10.179Z,27.08
2023-01-22T19:56:39.573Z,29.52
2023-01-22T19:59:09.169Z,25.77
2023-01-22T20:01:37.381Z,23.45
2023-01-22T20:04:08.874Z,25.00
2023-01-22T20:06:36.780Z,24.00
2023-01-22T20:09:04.678Z,29.25
2023-01-22T20:11:32.324Z,25.58
2023-01-22T20:14:01.332Z,24.20
2023-01-22T20:16:30.342Z,27.35
2023-01-22T20:18:58.761Z,23.98
2023-01-22T20:21:28.248Z,22.92
2023-01-22T20:23:57.334Z,23.23
2023-01-22T20:26:24.997Z,20.52
2023-01-22T20:28:52.554Z,21.13
2023-01-22T20:31:23.429Z,24.83
2023-01-22T20:33:52.533Z,24.60
2023-01-22T20:36:21.431Z,24.20
2023-01-22T20:38:52.862Z,25.27
2023-01-22T20:41:22.475Z,23.90
2023-01-22T20:43:51.470Z,23.80
2023-01-22T20:46:20.842Z,24.35
2023-01-22T20:48:49.386Z,23.33
2023-01-22T20:51:19.879Z,24.35
2023-01-22T20:53:50.394Z,24.02
2023-01-22T20:56:22.478Z,24.13
2023-01-22T20:58:57.012Z,24.55
2023-01-22T21:01:25.081Z,24.60
2023-01-22T21:03:53.703Z,24.80
2023-01-22T21:06:21.445Z,25.10
2023-01-22T21:08:52.343Z,24.92
2023-01-22T21:11:22.113Z,25.17
2023-01-22T21:13:51.153Z,25.48
2023-01-22T21:16:23.061Z,24.95
2023-01-22T21:21:20.783Z,25.05
2023-01-22T21:23:52.010Z,23.65
2023-01-22T21:26:23.618Z,21.40
2023-01-22T21:28:54.347Z,23.35
2023-01-22T21:31:23.259Z,22.85
2023-01-22T21:33:52.526Z,23.08
2023-01-22T21:36:22.261Z,22.38
2023-01-22T21:38:51.206Z,20.25
2023-01-22T21:41:19.576Z,22.88
2023-01-22T21:44:06.213Z,23.85
2023-01-22T21:46:37.127Z,20.20
2023-01-22T21:49:16.179Z,21.30
2023-01-22T21:51:46.128Z,20.73
2023-01-22T21:54:17.409Z,19.55
2023-01-22T21:56:46.136Z,21.77
2023-01-22T21:59:14.259Z,20.80
2023-01-22T22:01:42.342Z,20.48
2023-01-22T22:04:11.310Z,21.98
2023-01-22T22:06:39.372Z,21.48
2023-01-22T22:09:09.557Z,21.60
2023-01-22T22:11:39.347Z,23.15
2023-01-22T22:14:09.848Z,21.25
2023-01-22T22:16:37.804Z,22.50
2023-01-22T22:19:07.644Z,20.35
2023-01-22T22:21:36.791Z,21.17
2023-01-22T22:24:05.082Z,21.23
2023-01-22T22:26:33.272Z,19.73
2023-01-22T22:29:02.772Z,18.10
2023-01-22T22:31:30.755Z,18.52
2023-01-22T22:33:59.101Z,20.23
2023-01-22T22:36:30.266Z,18.63
2023-01-22T22:38:58.272Z,18.85
2023-01-22T22:41:27.665Z,17.65
2023-01-22T22:43:56.584Z,17.35
2023-01-22T22:46:27.179Z,19.35
2023-01-22T22:48:57.276Z,18.42
2023-01-22T22:51:26.944Z,17.35
2023-01-22T22:53:57.458Z,18.83
2023-01-22T22:56:26.314Z,19.42
2023-01-22T22:58:55.175Z,17.10
2023-01-22T23:01:26.279Z,18.77
2023-01-22T23:03:54.674Z,19.73
2023-01-22T23:06:24.461Z,17.83
2023-01-22T23:08:54.060Z,19.02
2023-01-22T23:11:26.280Z,17.00
2023-01-22T23:13:55.254Z,17.08
2023-01-22T23:16:25.379Z,18.50
2023-01-22T23:18:54.278Z,21.77
2023-01-22T23:21:24.659Z,18.42
2023-01-22T23:23:53.191Z,17.75
2023-01-22T23:26:28.309Z,18.10
2023-01-22T23:28:57.879Z,16.58
2023-01-22T23:31:28.386Z,16.15
2023-01-22T23:33:57.663Z,19.20
2023-01-22T23:36:26.486Z,18.65
2023-01-22T23:38:54.736Z,15.98
2023-01-22T23:41:22.556Z,15.50
2023-01-22T23:43:50.928Z,16.50
2023-01-22T23:46:22.237Z,16.92
2023-01-22T23:48:51.596Z,17.10
2023-01-22T23:51:20.214Z,15.55
2023-01-22T23:53:51.557Z,18.05
2023-01-22T23:56:20.550Z,19.38
2023-01-22T23:58:48.992Z,15.50
